Peachtree City, GA

11:12 AM EST on December 28, 2014 (GMT -0500)
Peachtree City-Falcon | Change Station
CLOSE
Current Station
Airport
Location: Peachtree City,
Elevation: 807 ft
Nearby Weather Stations
Active Advisory: Areal Flood Watch

Elev 807 ft 33.36 °N, 84.57 °W | Updated 19 minutes ago

Overcast
Overcast
56 °F
Feels Like 56 °F
N
0
Wind Variable Wind from North

Today
High -- | Low -- °F
--% Chance of Precip.
Yesterday
High -- | Low -- °F
Precip. -- in
7:41 AM 5:38 PM
Waxing Crescent, 49% visible
Pressure 30.12 in
Visibility 4.0 miles
Clouds Mostly Cloudy 500 ft
Overcast 1400 ft
Dew Point 56 °F
Humidity 100%
Rainfall 1.25 in
Snow Depth Not available.
UV 1 out of 12
Pollen 1.30 out of 12
Air Quality Not available.
Flu Activity Not available.
METAR KFFC 281553Z AUTO 00000KT 4SM BR BKN005 OVC014 13/13 A3011 RMK AO2 RAE50 SLP197 P0003 T01330133

More Conditions Fewer Conditions

Pressure 30.12 in
Visibility 4.0 miles
Clouds Mostly Cloudy 500 ft
Overcast 1400 ft
Dew Point 56 °F
Humidity 100%
Rainfall 1.25 in
Snow Depth Not available.
UV 1 out of 12
Pollen 1.30 out of 12
Air Quality Not available.
Flu Activity Not available.
METAR KFFC 281553Z AUTO 00000KT 4SM BR BKN005 OVC014 13/13 A3011 RMK AO2 RAE50 SLP197 P0003 T01330133

More Conditions Fewer Conditions

10-Day Weather Forecast

Almanac

Astronomy

Dec. 28, 2014 Rise Set
Actual Time
Civil Twilight
Nautical Twilight
Astronomical Twilight
Moon
Length of Visible Light
Length of Day
Tomorrow will be .
, % of the Moon is Illuminated

Today's Extremes

State Highs State Lows

Community

WunderPhotos

Upload Photos

1,781,318 photos uploaded!

WunderBlogs® & News

Nearby

Air Quality

  Air Quality AQ Index Pollutant
Not available.

Snow Depth

Station Depth Elevation

Earthquake Activity

City Distance Mag. Time & Date
Minimum magnitude displayed is 2.5.

Coastal Water Temperatures

Place Temperature

Nearby Weather Stations